Jacobs, Texas
Current Conditions -  °F | °C
As of 3:35 AM on Tuesday 21 Oct 2014 (Local Time) from KRFI Reporting Station
Clear Clear  
Wind Chill: 12°   Ceiling: Unl
Heat Index: 12°   Visibility: 7mi
Dew Point: 12°   Wind: 0mph
Humidity: 99%   Direction: NA
Pressure: 30.05"   Gusts: NA
Location:  32.2818°N, 94.951°W
Report Text: KRFI 210835Z AUTO 00000KT 7SM CLR 12/12 A3005 RMK AO2 T01170116
Loading
Personal Weather Stations






























Interactive Weather Map
Tropical Storm Tracking
New forecast layout! Learn more

10-Day Weather Forecast

Advertisements
Track Severe Weather on mobile